Flight Track Log - Related Links

Times and Time Zones

All times are in EDT time to prevent confusion due to time zone crossing. See the FLG4222 flight status page for this flight to view local times or setup timezone preferences in your user account.

Time Position Orientation Groundspeed Altitude Reporting Facility
EDT Latitude Longitude Course Direction KTS MPH feet Rate Location/Type
Mon 11:49:36 AM 42.2797 -76.1631 293° West 218 251 7,000  Level New York Center
Mon 11:50:36 AM 42.3514 -76.1886 345° North 223 257 8,000 1,000 Climbing New York Center
Mon 11:51:36 AM 42.4186 -76.2222 340° North 229 264 9,000 1,311 Climbing New York Center
Mon 11:53:39 AM 42.4681 -76.4347 288° West 312 359 12,000 1,557 Climbing Cleveland Center
Mon 11:54:41 AM 42.4956 -76.5550 287° West 331 381 13,800 1,790 Climbing Cleveland Center
Mon 11:55:43 AM 42.5206 -76.6733 286° West 329 379 15,700 1,561 Climbing Cleveland Center
Mon 11:56:44 AM 42.5475 -76.7944 287° West 334 384 17,000 1,024 Climbing Cleveland Center
Mon 11:57:46 AM 42.5733 -76.9203 286° West 344 396 17,800 1,113 Climbing Cleveland Center
Mon 11:58:48 AM 42.6075 -77.0764 287° West 359 413 19,300 1,210 Climbing Cleveland Center
Mon 11:59:50 AM 42.6200 -77.2131 277° West 369 425 20,300 927 Climbing Cleveland Center
Mon 12:00:51 PM 42.6289 -77.3517 275° West 370 426 21,200 780 Climbing Cleveland Center
Mon 12:01:53 PM 42.6378 -77.4981 275° West 375 432 21,900 677 Climbing Cleveland Center
Mon 12:02:55 PM 42.6456 -77.6414 274° West 379 436 22,600 581 Climbing Cleveland Center
Mon 12:03:57 PM 42.6542 -77.7911 275° West 393 452 23,100 581 Climbing Cleveland Center
Mon 12:04:59 PM 42.6636 -77.9528 275° West 401 461 23,800 677 Climbing Cleveland Center
Mon 12:06:01 PM 42.6714 -78.1036 274° West 401 461 24,500 581 Climbing Cleveland Center
Mon 12:07:03 PM 42.6794 -78.2558 274° West 405 466 25,000 532 Climbing Cleveland Center
Mon 12:08:05 PM 42.6889 -78.4389 274° West 405 466 25,600 484 Climbing Cleveland Center
Mon 12:09:07 PM 42.6972 -78.5947 274° West 414 476 26,000 194 Climbing Cleveland Center
Mon 12:10:09 PM 42.7042 -78.7511 274° West 415 478 26,000  Level Cleveland Center
Mon 12:11:11 PM 42.7114 -78.9064 274° West 411 473 26,000  Level Cleveland Center
Mon 12:12:13 PM 42.7197 -79.0639 274° West 416 479 26,000  Level Cleveland Center
Mon 12:13:15 PM 42.7258 -79.2206 273° West 416 479 26,000  Level Cleveland Center
Mon 12:14:17 PM 42.7336 -79.4100 273° West 419 482 26,000  Level Cleveland Center
Mon 12:15:19 PM 42.7400 -79.5681 273° West 420 483 26,000  Level Cleveland Center
Mon 12:16:21 PM 42.7458 -79.7278 273° West 422 486 26,000  Level Cleveland Center
Mon 12:17:23 PM 42.7497 -79.8881 272° West 425 489 26,000  Level Cleveland Center
Mon 12:18:25 PM 42.7408 -80.0731 266° West 435 501 26,000  Level Cleveland Center
Mon 12:19:27 PM 42.7342 -80.2344 267° West 429 494 26,000  Level Cleveland Center
Mon 12:20:29 PM 42.7269 -80.3992 267° West 433 498 26,000  Level Cleveland Center
Mon 12:21:31 PM 42.7200 -80.5619 267° West 431 496 26,000 -484 Level Cleveland Center
Mon 12:22:33 PM 42.7125 -80.7311 267° West 443 510 25,000 -968 Descending Cleveland Center
Mon 12:23:35 PM 42.7058 -80.8975 267° West 442 509 24,000 -484 Descending Cleveland Center
Mon 12:24:37 PM 42.6858 -81.0569 260° West 429 494 24,000  Level Cleveland Center
Mon 12:25:39 PM 42.6653 -81.2411 261° West 422 486 24,000  Level Cleveland Center
Mon 12:26:42 PM 42.6472 -81.3983 261° West 420 483 24,000  Level Cleveland Center
Mon 12:27:44 PM 42.6283 -81.5561 261° West 420 483 24,000 -629 Level Cleveland Center
Mon 12:28:46 PM 42.6097 -81.7139 261° West 421 484 22,700 -1,742 Descending Cleveland Center
Mon 12:29:48 PM 42.5892 -81.8797 260° West 414 476 20,400 -2,177 Descending Cleveland Center
Mon 12:30:50 PM 42.5722 -82.0311 261° West 409 471 18,200 -1,984 Descending Cleveland Center
Mon 12:31:52 PM 42.5550 -82.1739 261° West 391 450 16,300 -2,016 Descending Cleveland Center
Mon 12:32:58 PM 42.5350 -82.3378 261° West 366 421 13,900 -1,935 Descending Cleveland Center
Mon 12:33:56 PM 42.5203 -82.4422 259° West 365 420 12,300 -1,239 Descending Cleveland Center
Mon 12:34:30 PM 42.5083 -82.5408 261° West 356 410 12,000 -290 Descending Cleveland Center
Mon 12:34:58 PM 42.4881 -82.5956 243° Southwest 363 418 12,000 107 Level Cleveland Center
Mon 12:35:26 PM 42.4689 -82.6547 246° West 364 419 12,100  Climbing Cleveland Center
Mon 12:36:00 PM 42.4447 -82.7206 244° Southwest 364 419 12,000  Descending Cleveland Center
Mon 12:36:33 PM 42.4186 -82.7978 245° Southwest 372 428 12,100  Climbing Cleveland Center
Mon 12:37:02 PM 42.3992 -82.8469 242° Southwest 371 427 12,000 -689 Descending Cleveland Center
Mon 12:37:34 PM 42.3739 -82.9247 246° West 368 423 11,400 -871 Descending Cleveland Center
Mon 12:38:04 PM 42.3556 -82.9681 240° Southwest 366 421 11,100 -393 Descending Cleveland Center
Mon 12:38:35 PM 42.3344 -83.0294 245° Southwest 283 326 11,000 -97 Descending Cleveland Center
Mon 12:39:06 PM 42.3219 -83.0614 242° Southwest 288 331 11,000 97 Level Cleveland Center
Mon 12:39:37 PM 42.3050 -83.1158 247° West 226 260 11,100  Climbing Cleveland Center
Mon 12:40:08 PM 42.2936 -83.1392 237° Southwest 240 276 11,000  Descending Cleveland Center
Mon 12:40:38 PM 42.2606 -83.1772 220° Southwest 236 272 11,100 95 Climbing Cleveland Center
Mon 12:41:11 PM 42.2406 -83.1875 201° Southwest 235 270 11,100 -581 Level Cleveland Center
Mon 12:41:40 PM 42.2008 -83.2169 209° Southwest 240 276 10,500 -1,161 Descending Cleveland Center
Mon 12:42:13 PM 42.1717 -83.2350 205° Southwest 240 276 9,900 -1,279 Descending Cleveland Center
Mon 12:42:41 PM 42.1414 -83.2567 208° Southwest 237 273 9,200 -1,355 Descending Cleveland Center
Mon 12:43:15 PM 42.1119 -83.2736 203° Southwest 236 272 8,500 -1,418 Descending Cleveland Center
Mon 12:43:36 PM 42.0881 -83.2942 213° Southwest 234 269 7,900 -1,355 Descending Cleveland Center
Mon 12:44:17 PM 42.0536 -83.3139 203° Southwest 234 269 7,100 -1,258 Descending Cleveland Center
Mon 12:44:38 PM 42.0283 -83.3336 210° Southwest 236 272 6,600 -968 Descending Cleveland Center
Mon 12:45:19 PM 41.9964 -83.3547 206° Southwest 231 266 6,100 -1,082 Descending Cleveland Center
Mon 12:45:39 PM 41.9706 -83.3761 212° Southwest 223 257 5,500 -1,258 Descending Cleveland Center
Mon 12:46:21 PM 41.9406 -83.3967 207° Southwest 222 255 4,800 -1,075 Descending Cleveland Center
Mon 12:46:46 PM 41.9150 -83.4161 210° Southwest 209 241 4,300 -774 Descending Cleveland Center
Mon 12:47:23 PM 41.8917 -83.4311 206° Southwest 208 239 4,000 -245 Descending Cleveland Center
Mon 12:47:35 PM 41.8753 -83.4439 210° Southwest 186 214 4,100 97 Climbing Cleveland Center
Mon 12:48:25 PM 41.8669 -83.4792 252° West 183 211 4,100  Level Cleveland Center
Mon 12:48:42 PM 41.8781 -83.5144 293° West 181 208 4,100  Level Cleveland Center
Mon 12:49:27 PM 41.9031 -83.5342 330° Northwest 195 224 4,100  Level Cleveland Center
Mon 12:49:44 PM 41.9203 -83.5347 359° North 179 206 4,100  Level Cleveland Center
Mon 12:50:39 PM 41.9633 -83.5211 13° North 178 205 4,100 -56 Level Cleveland Center
Mon 12:51:31 PM 41.9961 -83.4958 30° Northeast 180 207 4,000  Descending Cleveland Center
Mon 12:51:40 PM 42.0081 -83.4881 26° Northeast 180 207 4,100  Climbing Cleveland Center
Mon 12:52:33 PM 42.0397 -83.4636 30° Northeast 180 207 4,000 -109 Descending Cleveland Center
Mon 12:52:35 PM 42.0478 -83.4600 18° North 178 205 4,000 -677 Level Cleveland Center
Mon 12:53:35 PM 42.0836 -83.4322 30° Northeast 180 207 3,300 -986 Descending Cleveland Center
Mon 12:53:48 PM 42.1014 -83.4200 27° Northeast 173 199 2,800 -1,065 Descending Cleveland Center
Mon 12:54:37 PM 42.1325 -83.3975 28° Northeast 172 198 2,200 -871 Descending Cleveland Center
Mon 12:54:50 PM 42.1389 -83.3942 21° North 140 161 1,900 -667 Descending Cleveland Center
Mon 12:55:40 PM 42.1644 -83.3728 32° Northeast 148 170 1,500 -700 Descending Cleveland Center
Mon 12:55:50 PM 42.1744 -83.3683 18° North 138 159 1,200 -581 Descending Cleveland Center
Mon 12:56:42 PM 42.2011 -83.3453 33° Northeast 142 163 900 -346 Descending Cleveland Center

Login

Don't have an account? Register now (free) for customized features, flight alerts, and more!